createdAt,value
2022-11-23T00:01:36.715Z,96266.59
2022-11-23T00:04:11.775Z,96269.66
2022-11-23T00:06:41.059Z,96267.63
2022-11-23T00:09:11.401Z,96264.97
2022-11-23T00:11:39.192Z,96266.78
2022-11-23T00:14:07.000Z,96264.88
2022-11-23T00:16:34.826Z,96257.94
2022-11-23T00:19:02.946Z,96253.44
2022-11-23T00:21:33.040Z,96256.38
2022-11-23T00:24:01.247Z,96255.00
2022-11-23T00:26:29.283Z,96255.47
2022-11-23T00:28:57.201Z,96256.91
2022-11-23T00:31:27.972Z,96258.47
2022-11-23T00:33:57.425Z,96248.75
2022-11-23T00:36:27.485Z,96251.50
2022-11-23T00:38:56.346Z,96253.06
2022-11-23T00:41:27.095Z,96251.84
2022-11-23T00:43:55.345Z,96249.47
2022-11-23T00:46:26.626Z,96252.78
2022-11-23T00:48:57.108Z,96251.94
2022-11-23T00:51:32.238Z,96249.47
2022-11-23T00:54:01.897Z,96250.84
2022-11-23T00:56:31.257Z,96252.84
2022-11-23T00:59:01.082Z,96252.16
2022-11-23T01:01:36.957Z,96250.69
2022-11-23T01:04:08.004Z,96245.91
2022-11-23T01:06:40.077Z,96240.25
2022-11-23T01:09:17.942Z,96250.88
2022-11-23T01:11:46.270Z,96245.09
2022-11-23T01:14:14.157Z,96246.75
2022-11-23T01:16:42.514Z,96253.81
2022-11-23T01:19:21.198Z,96251.91
2022-11-23T01:21:51.643Z,96260.84
2022-11-23T01:24:22.874Z,96253.88
2022-11-23T01:26:55.231Z,96257.38
2022-11-23T01:29:24.343Z,96259.00
2022-11-23T01:31:52.307Z,96251.69
2022-11-23T01:34:20.142Z,96247.75
2022-11-23T01:36:47.875Z,96253.88
2022-11-23T01:39:16.344Z,96251.78
2022-11-23T01:41:46.759Z,96251.16
2022-11-23T01:44:43.472Z,96258.75
2022-11-23T01:47:11.399Z,96257.19
2022-11-23T01:49:51.774Z,96260.84
2022-11-23T01:52:26.156Z,96261.22
2022-11-23T01:54:58.186Z,96269.81
2022-11-23T01:57:32.706Z,96270.63
2022-11-23T02:00:02.072Z,96269.81
2022-11-23T02:02:47.869Z,96272.94
2022-11-23T02:05:22.924Z,96277.22
2022-11-23T02:07:51.384Z,96267.81
2022-11-23T02:10:21.338Z,96279.41
2022-11-23T02:12:49.152Z,96279.16
2022-11-23T02:15:17.267Z,96279.97
2022-11-23T02:17:46.083Z,96273.84
2022-11-23T02:20:18.522Z,96277.41
2022-11-23T02:23:04.623Z,96276.22
2022-11-23T02:25:46.327Z,96284.00
2022-11-23T02:28:26.903Z,96283.19
2022-11-23T02:30:55.849Z,96287.47
2022-11-23T02:33:25.552Z,96288.28
2022-11-23T02:35:59.029Z,96288.09
2022-11-23T02:38:32.118Z,96281.16
2022-11-23T02:41:00.702Z,96286.91
2022-11-23T02:43:28.557Z,96288.38
2022-11-23T02:45:59.700Z,96289.94
2022-11-23T02:48:27.548Z,96291.13
2022-11-23T02:50:55.849Z,96284.34
2022-11-23T02:53:25.138Z,96288.19
2022-11-23T02:55:55.257Z,96289.69
2022-11-23T02:58:25.028Z,96282.47
2022-11-23T03:00:52.866Z,96284.66
2022-11-23T03:03:20.771Z,96283.06
2022-11-23T03:05:48.556Z,96285.72
2022-11-23T03:08:16.523Z,96283.25
2022-11-23T03:10:44.277Z,96279.59
2022-11-23T03:13:12.780Z,96279.44
2022-11-23T03:15:41.578Z,96277.03
2022-11-23T03:18:10.669Z,96281.19
2022-11-23T03:20:39.225Z,96286.13
2022-11-23T03:23:07.007Z,96282.31
2022-11-23T03:25:34.785Z,96276.34
2022-11-23T03:28:04.810Z,96280.34
2022-11-23T03:30:34.180Z,96281.38
2022-11-23T03:33:04.221Z,96294.16
2022-11-23T03:35:32.265Z,96291.84
2022-11-23T03:38:23.387Z,96297.88
2022-11-23T03:40:52.890Z,96289.03
2022-11-23T03:43:33.558Z,96285.22
2022-11-23T03:46:01.335Z,96292.13
2022-11-23T03:48:29.126Z,96282.81
2022-11-23T03:50:57.044Z,96281.09
2022-11-23T03:53:25.371Z,96277.94
2022-11-23T03:55:55.508Z,96279.41
2022-11-23T03:58:25.312Z,96272.28
2022-11-23T04:00:53.168Z,96273.72
2022-11-23T04:03:21.145Z,96271.72
2022-11-23T04:06:07.176Z,96262.78
2022-11-23T04:08:58.973Z,96268.06
2022-11-23T04:11:44.698Z,96267.69
2022-11-23T04:14:12.583Z,96264.41
2022-11-23T04:16:40.337Z,96265.44
2022-11-23T04:19:08.447Z,96264.78
2022-11-23T04:21:37.193Z,96262.47
2022-11-23T04:24:05.835Z,96267.97
2022-11-23T04:26:36.518Z,96266.00
2022-11-23T04:29:04.567Z,96262.06
2022-11-23T04:31:34.532Z,96260.78
2022-11-23T04:34:11.396Z,96261.25
2022-11-23T04:36:40.324Z,96257.59
2022-11-23T04:39:12.647Z,96254.28
2022-11-23T04:42:06.967Z,96263.72
2022-11-23T04:44:35.499Z,96254.75
2022-11-23T04:47:05.865Z,96258.56
2022-11-23T04:49:37.293Z,96257.19
2022-11-23T04:52:05.973Z,96260.22
2022-11-23T04:54:38.824Z,96259.94
2022-11-23T04:57:10.017Z,96249.97
2022-11-23T04:59:39.364Z,96260.66
2022-11-23T05:02:07.402Z,96263.31
2022-11-23T05:04:48.901Z,96262.13
2022-11-23T05:07:18.270Z,96258.81
2022-11-23T05:09:52.720Z,96270.19
2022-11-23T05:12:22.367Z,96260.69
2022-11-23T05:14:51.204Z,96261.84
2022-11-23T05:17:31.098Z,96260.69
2022-11-23T05:19:59.149Z,96263.16
2022-11-23T05:22:28.157Z,96256.66
2022-11-23T05:24:56.072Z,96258.56
2022-11-23T05:27:25.987Z,96254.91
2022-11-23T05:29:53.910Z,96261.31
2022-11-23T05:32:21.832Z,96256.81
2022-11-23T05:34:50.089Z,96249.94
2022-11-23T05:37:19.590Z,96256.16
2022-11-23T05:39:54.139Z,96256.53
2022-11-23T05:42:24.502Z,96246.16
2022-11-23T05:44:55.618Z,96244.34
2022-11-23T05:47:30.160Z,96251.94
2022-11-23T05:49:58.189Z,96251.56
2022-11-23T05:52:29.975Z,96247.63
2022-11-23T05:54:58.690Z,96252.19
2022-11-23T05:57:26.473Z,96256.94
2022-11-23T05:59:54.343Z,96251.28
2022-11-23T06:02:26.945Z,96245.78
2022-11-23T06:05:00.819Z,96237.41
2022-11-23T06:07:39.921Z,96235.84
2022-11-23T06:10:12.382Z,96239.13
2022-11-23T06:12:45.914Z,96245.28
2022-11-23T06:15:18.350Z,96248.13
2022-11-23T06:17:47.544Z,96252.81
2022-11-23T06:20:20.255Z,96249.75
2022-11-23T06:22:56.749Z,96257.50
2022-11-23T06:25:26.264Z,96263.34
2022-11-23T06:28:01.392Z,96260.13
2022-11-23T06:30:37.018Z,96253.06
2022-11-23T06:33:08.076Z,96254.25
2022-11-23T06:36:00.068Z,96246.09
2022-11-23T06:38:33.188Z,96253.63
2022-11-23T06:41:09.052Z,96251.41
2022-11-23T06:43:36.871Z,96257.38
2022-11-23T06:46:06.921Z,96257.09
2022-11-23T06:48:39.682Z,96253.94
2022-11-23T06:51:08.578Z,96258.28
2022-11-23T06:53:38.342Z,96262.66
2022-11-23T06:56:08.959Z,96252.66
2022-11-23T06:58:37.378Z,96255.09
2022-11-23T07:01:11.055Z,96256.75
2022-11-23T07:03:48.285Z,96259.41
2022-11-23T07:06:23.240Z,96265.34
2022-11-23T07:08:55.882Z,96264.78
2022-11-23T07:11:50.017Z,96265.22
2022-11-23T07:14:18.668Z,96271.56
2022-11-23T07:16:48.857Z,96271.75
2022-11-23T07:19:16.664Z,96270.72
2022-11-23T07:21:45.994Z,96271.00
2022-11-23T07:24:13.967Z,96277.13
2022-11-23T07:26:42.172Z,96277.56
2022-11-23T07:29:11.072Z,96277.84
2022-11-23T07:31:39.131Z,96275.63
2022-11-23T07:34:09.188Z,96279.09
2022-11-23T07:36:37.246Z,96282.19
2022-11-23T07:39:05.407Z,96277.88
2022-11-23T07:41:33.597Z,96287.97
2022-11-23T07:44:22.396Z,96289.41
2022-11-23T07:46:55.762Z,96293.16
2022-11-23T07:49:23.667Z,96281.28
2022-11-23T07:51:51.476Z,96288.50
2022-11-23T07:54:23.455Z,96301.25
2022-11-23T07:56:51.592Z,96287.31
2022-11-23T07:59:19.362Z,96295.13
2022-11-23T08:01:51.186Z,96296.56
2022-11-23T08:04:20.972Z,96282.84
2022-11-23T08:06:48.755Z,96295.97
2022-11-23T08:09:16.719Z,96301.09
2022-11-23T08:11:44.532Z,96299.66
2022-11-23T08:14:12.519Z,96293.31
2022-11-23T08:16:40.313Z,96293.38
2022-11-23T08:19:08.331Z,96287.06
2022-11-23T08:21:36.193Z,96287.31
2022-11-23T08:24:06.680Z,96292.44
2022-11-23T08:26:34.680Z,96288.31
2022-11-23T08:29:07.240Z,96295.94
2022-11-23T08:31:35.735Z,96293.53
2022-11-23T08:34:03.928Z,96294.97
2022-11-23T08:36:31.977Z,96295.59
2022-11-23T08:39:00.404Z,96295.84
2022-11-23T08:41:28.626Z,96298.09
2022-11-23T08:43:56.622Z,96298.53
2022-11-23T08:46:25.029Z,96294.72
2022-11-23T08:48:52.841Z,96296.41
2022-11-23T08:51:23.189Z,96291.72
2022-11-23T08:53:51.966Z,96291.28
2022-11-23T08:56:20.203Z,96292.06
2022-11-23T08:58:48.143Z,96294.53
2022-11-23T09:01:17.535Z,96294.72
2022-11-23T09:03:46.203Z,96301.66
2022-11-23T09:06:14.083Z,96303.03
2022-11-23T09:08:41.936Z,96304.03
2022-11-23T09:11:14.463Z,96301.78
2022-11-23T09:13:42.348Z,96304.44
2022-11-23T09:16:10.648Z,96297.03
2022-11-23T09:18:38.637Z,96300.91
2022-11-23T09:21:06.588Z,96299.25
2022-11-23T09:23:34.635Z,96299.06
2022-11-23T09:26:05.012Z,96301.53
2022-11-23T09:28:33.437Z,96302.16
2022-11-23T09:31:04.751Z,96303.19
2022-11-23T09:33:32.596Z,96302.16
2022-11-23T09:36:03.433Z,96296.25
2022-11-23T09:38:55.202Z,96302.63
2022-11-23T09:42:00.636Z,96310.44
2022-11-23T09:45:01.470Z,96306.56
2022-11-23T09:48:05.762Z,96309.84
2022-11-23T09:51:04.279Z,96311.31
2022-11-23T09:54:04.211Z,96307.97
2022-11-23T09:56:37.454Z,96302.25
2022-11-23T09:59:34.976Z,96295.72
2022-11-23T10:02:03.114Z,96302.09
2022-11-23T10:04:35.577Z,96295.78
2022-11-23T10:07:25.719Z,96301.28
2022-11-23T10:10:24.338Z,96290.66
2022-11-23T10:12:59.729Z,96297.41
2022-11-23T10:15:38.141Z,96300.06
2022-11-23T10:18:58.236Z,96295.38
2022-11-23T10:22:27.783Z,96293.97
2022-11-23T10:24:55.711Z,96291.72
2022-11-23T10:27:25.242Z,96286.81
2022-11-23T10:29:56.588Z,96289.84
2022-11-23T10:32:35.153Z,96283.94
2022-11-23T10:35:35.635Z,96295.00
2022-11-23T10:38:20.326Z,96289.47
2022-11-23T10:41:12.378Z,96287.22
2022-11-23T10:44:02.907Z,96289.94
2022-11-23T10:46:37.320Z,96280.16
2022-11-23T10:49:26.228Z,96280.50
2022-11-23T10:52:05.285Z,96281.16
2022-11-23T10:54:46.128Z,96276.50
2022-11-23T10:57:34.858Z,96267.31
2022-11-23T11:00:16.176Z,96266.94
2022-11-23T11:02:54.886Z,96279.50
2022-11-23T11:08:35.929Z,96284.22
2022-11-23T11:11:22.041Z,96272.94
2022-11-23T11:13:50.047Z,96272.31
2022-11-23T11:16:33.513Z,96275.41
2022-11-23T11:19:21.220Z,96268.03
2022-11-23T11:21:49.192Z,96264.31
2022-11-23T11:24:26.206Z,96271.69
2022-11-23T11:27:03.834Z,96263.50
2022-11-23T11:29:38.989Z,96272.31
2022-11-23T11:32:18.566Z,96265.78
2022-11-23T11:35:26.007Z,96263.13
2022-11-23T11:38:02.068Z,96254.31
2022-11-23T11:40:45.312Z,96253.09
2022-11-23T11:43:33.574Z,96246.13
2022-11-23T11:46:29.142Z,96239.19
2022-11-23T11:49:20.865Z,96239.59
2022-11-23T11:52:15.132Z,96233.66
2022-11-23T11:55:03.056Z,96233.69
2022-11-23T11:57:43.659Z,96225.06
2022-11-23T12:00:17.489Z,96218.91
2022-11-23T12:03:16.270Z,96223.03
2022-11-23T12:05:55.794Z,96223.25
2022-11-23T12:08:33.839Z,96211.75
2022-11-23T12:11:02.379Z,96205.59
2022-11-23T12:13:35.266Z,96208.25
2022-11-23T12:17:10.260Z,96207.47
2022-11-23T12:19:54.769Z,96215.06
2022-11-23T12:22:50.683Z,96209.91
2022-11-23T12:25:41.974Z,96206.44
2022-11-23T12:28:36.593Z,96201.69
2022-11-23T12:31:31.458Z,96203.72
2022-11-23T12:34:46.170Z,96193.25
2022-11-23T12:37:44.759Z,96201.22
2022-11-23T12:40:42.165Z,96195.28
2022-11-23T12:43:36.776Z,96195.47
2022-11-23T12:46:13.642Z,96197.09
2022-11-23T12:49:09.561Z,96194.22
2022-11-23T12:51:47.846Z,96205.31
2022-11-23T12:55:15.007Z,96190.91
2022-11-23T12:58:00.389Z,96198.47
2022-11-23T13:00:36.367Z,96195.41
2022-11-23T13:03:33.846Z,96180.38
2022-11-23T13:06:27.709Z,96186.72
2022-11-23T13:09:16.561Z,96184.47
2022-11-23T13:11:53.061Z,96177.84
2022-11-23T13:14:47.123Z,96172.31
2022-11-23T13:17:58.081Z,96169.41
2022-11-23T13:20:37.753Z,96169.38
2022-11-23T13:23:06.928Z,96163.59
2022-11-23T13:25:34.791Z,96161.53
2022-11-23T13:28:31.034Z,96167.53
2022-11-23T13:31:17.109Z,96161.53
2022-11-23T13:33:48.786Z,96153.16
2022-11-23T13:37:12.302Z,96147.81
2022-11-23T13:40:59.571Z,96155.34
2022-11-23T13:43:38.693Z,96144.44
2022-11-23T13:46:31.617Z,96140.53
2022-11-23T13:49:00.839Z,96132.31
2022-11-23T13:51:35.001Z,96124.50
2022-11-23T13:54:24.927Z,96119.41
2022-11-23T13:57:05.081Z,96123.69
2022-11-23T13:59:34.986Z,96123.09
2022-11-23T14:02:08.871Z,96122.06
2022-11-23T14:04:44.712Z,96115.06
2022-11-23T14:07:43.635Z,96116.50
2022-11-23T14:10:23.549Z,96116.72
2022-11-23T14:13:12.424Z,96118.56
2022-11-23T14:15:45.376Z,96122.28
2022-11-23T14:18:50.324Z,96122.44
2022-11-23T14:21:29.623Z,96126.59
2022-11-23T14:24:28.991Z,96121.41
2022-11-23T14:27:47.657Z,96109.28
2022-11-23T14:30:59.792Z,96111.53
2022-11-23T14:33:55.786Z,96101.31
2022-11-23T14:36:51.708Z,96095.34
2022-11-23T14:39:50.171Z,96094.09
2022-11-23T14:42:23.058Z,96086.06
2022-11-23T14:44:52.472Z,96076.78
2022-11-23T14:47:29.940Z,96080.94
2022-11-23T14:49:58.435Z,96079.13
2022-11-23T14:52:37.106Z,96076.50
2022-11-23T14:55:07.008Z,96075.53
2022-11-23T14:57:44.810Z,96066.28
2022-11-23T15:00:41.913Z,96071.88
2022-11-23T15:03:49.319Z,96059.59
2022-11-23T15:06:18.547Z,96059.84
2022-11-23T15:08:57.537Z,96065.66
2022-11-23T15:11:29.444Z,96064.84
2022-11-23T15:14:03.499Z,96069.19
2022-11-23T15:16:42.570Z,96066.38
2022-11-23T15:19:28.563Z,96069.88
2022-11-23T15:21:57.469Z,96076.28
2022-11-23T15:24:27.228Z,96071.75
2022-11-23T15:27:12.117Z,96067.66
2022-11-23T15:29:40.993Z,96064.59
2022-11-23T15:32:34.170Z,96072.03
2022-11-23T15:35:07.927Z,96071.19
2022-11-23T15:38:04.333Z,96071.00
2022-11-23T15:40:36.739Z,96068.53
2022-11-23T15:43:04.906Z,96079.41
2022-11-23T15:45:41.734Z,96075.94
2022-11-23T15:48:18.267Z,96075.31
2022-11-23T15:51:05.510Z,96084.34
2022-11-23T15:53:47.518Z,96085.78
2022-11-23T15:56:31.423Z,96086.59
2022-11-23T15:59:06.313Z,96093.56
2022-11-23T16:01:34.080Z,96096.47
2022-11-23T16:04:04.551Z,96101.56
2022-11-23T16:06:42.280Z,96112.03
2022-11-23T16:09:53.304Z,96118.22
2022-11-23T16:12:34.055Z,96118.59
2022-11-23T16:15:37.943Z,96118.41
2022-11-23T16:18:31.976Z,96121.50
2022-11-23T16:21:04.462Z,96125.38
2022-11-23T16:24:04.221Z,96137.50
2022-11-23T16:26:34.093Z,96142.19
2022-11-23T16:29:02.478Z,96152.88
2022-11-23T16:31:39.666Z,96153.47
2022-11-23T16:34:17.764Z,96164.16
2022-11-23T16:36:45.912Z,96169.28
2022-11-23T16:39:14.820Z,96169.28
2022-11-23T16:41:42.795Z,96175.63
2022-11-23T16:44:10.613Z,96184.25
2022-11-23T16:46:43.289Z,96194.09
2022-11-23T16:49:23.658Z,96195.97
2022-11-23T16:51:57.075Z,96197.81
2022-11-23T16:54:25.761Z,96204.16
2022-11-23T16:56:53.858Z,96206.44
2022-11-23T16:59:23.788Z,96207.66
2022-11-23T17:01:56.954Z,96215.66
2022-11-23T17:04:26.407Z,96213.19
2022-11-23T17:06:54.523Z,96225.94
2022-11-23T17:09:22.313Z,96215.88
2022-11-23T17:11:50.981Z,96229.63
2022-11-23T17:14:20.647Z,96228.00
2022-11-23T17:16:50.058Z,96230.00
2022-11-23T17:19:20.642Z,96240.28
2022-11-23T17:21:48.690Z,96239.88
2022-11-23T17:24:16.549Z,96241.47
2022-11-23T17:26:52.765Z,96242.72
2022-11-23T17:29:21.401Z,96247.63
2022-11-23T17:31:50.777Z,96245.75
2022-11-23T17:34:18.608Z,96254.78
2022-11-23T17:36:49.662Z,96258.88
2022-11-23T17:39:24.580Z,96260.13
2022-11-23T17:41:52.486Z,96273.84
2022-11-23T17:44:20.795Z,96268.50
2022-11-23T17:46:50.887Z,96278.53
2022-11-23T17:49:20.211Z,96280.59
2022-11-23T17:51:47.959Z,96277.88
2022-11-23T17:54:15.856Z,96280.97
2022-11-23T17:56:43.643Z,96275.22
2022-11-23T17:59:11.514Z,96288.94
2022-11-23T18:01:40.113Z,96283.81
2022-11-23T18:04:20.295Z,96284.63
2022-11-23T18:06:48.137Z,96285.63
2022-11-23T18:09:15.912Z,96281.97
2022-11-23T18:11:43.814Z,96289.16
2022-11-23T18:14:11.604Z,96287.50
2022-11-23T18:16:39.545Z,96293.22
2022-11-23T18:19:07.615Z,96295.66
2022-11-23T18:21:35.409Z,96299.16
2022-11-23T18:24:04.836Z,96294.00
2022-11-23T18:26:32.866Z,96308.38
2022-11-23T18:29:00.645Z,96315.72
2022-11-23T18:31:28.986Z,96324.31
2022-11-23T18:33:56.934Z,96323.50
2022-11-23T18:36:24.702Z,96323.88
2022-11-23T18:38:52.522Z,96325.91
2022-11-23T18:41:22.154Z,96334.94
2022-11-23T18:43:50.376Z,96333.28
2022-11-23T18:46:21.438Z,96326.13
2022-11-23T18:48:50.398Z,96341.06
2022-11-23T18:51:18.773Z,96343.94
2022-11-23T18:53:47.923Z,96338.81
2022-11-23T18:56:15.972Z,96343.91
2022-11-23T18:58:45.789Z,96351.47
2022-11-23T19:01:17.875Z,96350.22
2022-11-23T19:03:48.839Z,96352.34
2022-11-23T19:06:19.028Z,96355.81
2022-11-23T19:08:50.837Z,96359.09
2022-11-23T19:11:22.447Z,96364.81
2022-11-23T19:13:55.856Z,96370.56
2022-11-23T19:16:31.339Z,96373.22
2022-11-23T19:19:05.363Z,96373.38
2022-11-23T19:21:35.481Z,96378.72
2022-11-23T19:24:04.220Z,96387.75
2022-11-23T19:26:32.720Z,96381.91
2022-11-23T19:29:00.658Z,96393.78
2022-11-23T19:31:31.587Z,96399.38
2022-11-23T19:34:10.482Z,96408.97
2022-11-23T19:36:38.417Z,96404.44
2022-11-23T19:39:08.327Z,96416.81
2022-11-23T19:41:36.107Z,96422.59
2022-11-23T19:44:04.636Z,96421.75
2022-11-23T19:46:32.987Z,96432.41
2022-11-23T19:49:01.006Z,96433.91
2022-11-23T19:51:29.165Z,96441.00
2022-11-23T19:53:57.719Z,96448.81
2022-11-23T19:56:29.362Z,96452.63
2022-11-23T19:59:01.565Z,96451.09
2022-11-23T20:01:32.166Z,96454.78
2022-11-23T20:04:08.321Z,96463.03
2022-11-23T20:06:42.521Z,96480.75
2022-11-23T20:09:19.478Z,96492.03
2022-11-23T20:11:51.014Z,96490.19
2022-11-23T20:14:19.773Z,96496.69
2022-11-23T20:16:47.971Z,96518.63
2022-11-23T20:19:15.981Z,96523.47
2022-11-23T20:21:43.829Z,96528.53
2022-11-23T20:24:13.877Z,96550.63
2022-11-23T20:26:42.391Z,96544.19
2022-11-23T20:29:10.776Z,96555.91
2022-11-23T20:31:39.237Z,96564.13
2022-11-23T20:34:09.995Z,96577.63
2022-11-23T20:36:40.173Z,96588.13
2022-11-23T20:39:10.919Z,96576.81
2022-11-23T20:41:39.157Z,96595.38
2022-11-23T20:44:13.408Z,96601.09
2022-11-23T20:49:31.109Z,96615.03
2022-11-23T20:51:59.822Z,96623.91
2022-11-23T20:54:28.016Z,96622.56
2022-11-23T20:56:58.057Z,96631.91
2022-11-23T20:59:26.382Z,96642.38
2022-11-23T21:01:54.263Z,96640.72
2022-11-23T21:04:22.114Z,96646.63
2022-11-23T21:06:49.836Z,96659.66
2022-11-23T21:09:17.760Z,96655.94
2022-11-23T21:12:04.211Z,96666.19
2022-11-23T21:14:33.033Z,96676.16
2022-11-23T21:17:01.175Z,96660.31
2022-11-23T21:19:32.428Z,96663.69
2022-11-23T21:22:07.874Z,96672.72
2022-11-23T21:24:36.438Z,96669.06
2022-11-23T21:27:07.992Z,96685.50
2022-11-23T21:29:35.898Z,96694.66
2022-11-23T21:32:04.198Z,96692.22
2022-11-23T21:34:32.749Z,96708.22
2022-11-23T21:37:01.065Z,96706.31
2022-11-23T21:39:32.369Z,96703.72
2022-11-23T21:42:00.166Z,96723.22
2022-11-23T21:44:27.974Z,96723.34
2022-11-23T21:46:55.998Z,96716.78
2022-11-23T21:49:25.684Z,96735.13
2022-11-23T21:51:53.478Z,96710.91
2022-11-23T21:54:21.215Z,96722.94
2022-11-23T21:56:49.043Z,96724.59
2022-11-23T21:59:16.827Z,96736.81
2022-11-23T22:01:44.589Z,96728.41
2022-11-23T22:04:15.730Z,96732.53
2022-11-23T22:06:45.287Z,96741.72
2022-11-23T22:09:13.988Z,96748.66
2022-11-23T22:11:43.788Z,96750.00
2022-11-23T22:14:15.140Z,96760.44
2022-11-23T22:16:54.115Z,96749.59
2022-11-23T22:19:21.929Z,96763.44
2022-11-23T22:21:49.743Z,96759.78
2022-11-23T22:24:20.175Z,96755.19
2022-11-23T22:26:48.209Z,96770.91
2022-11-23T22:29:16.364Z,96772.28
2022-11-23T22:31:44.466Z,96768.16
2022-11-23T22:34:13.908Z,96774.03
2022-11-23T22:36:42.485Z,96776.84
2022-11-23T22:39:10.363Z,96780.09
2022-11-23T22:41:38.696Z,96786.13
2022-11-23T22:44:09.608Z,96786.13
2022-11-23T22:46:38.985Z,96788.97
2022-11-23T22:49:07.383Z,96792.38
2022-11-23T22:51:35.248Z,96797.72
2022-11-23T22:54:03.688Z,96796.78
2022-11-23T22:56:31.850Z,96809.66
2022-11-23T22:59:00.217Z,96808.09
2022-11-23T23:01:30.844Z,96811.84
2022-11-23T23:04:01.769Z,96813.69
2022-11-23T23:06:34.832Z,96816.63
2022-11-23T23:09:06.260Z,96819.50
2022-11-23T23:11:35.619Z,96821.50
2022-11-23T23:14:03.884Z,96811.47
2022-11-23T23:16:32.017Z,96819.19
2022-11-23T23:18:59.952Z,96828.41
2022-11-23T23:21:29.514Z,96826.63
2022-11-23T23:24:01.204Z,96823.25
2022-11-23T23:26:30.067Z,96834.06
2022-11-23T23:29:00.556Z,96834.72
2022-11-23T23:31:30.038Z,96834.25
2022-11-23T23:33:59.939Z,96831.69
2022-11-23T23:36:28.109Z,96841.16
2022-11-23T23:38:57.522Z,96847.03
2022-11-23T23:41:25.332Z,96849.78
2022-11-23T23:43:53.134Z,96848.75
2022-11-23T23:46:21.073Z,96859.06
2022-11-23T23:48:48.885Z,96858.78
2022-11-23T23:51:20.053Z,96856.28
2022-11-23T23:53:48.703Z,96861.09
2022-11-23T23:56:22.311Z,96856.94
2022-11-23T23:58:51.095Z,96865.03
